createdAt,value
2023-03-30T00:01:21.540Z,100225.34
2023-03-30T00:03:49.279Z,100221.31
2023-03-30T00:06:24.297Z,100209.19
2023-03-30T00:08:53.641Z,100202.28
2023-03-30T00:11:23.478Z,100197.25
2023-03-30T00:13:50.923Z,100199.72
2023-03-30T00:16:18.599Z,100201.41
2023-03-30T00:18:45.569Z,100193.91
2023-03-30T00:21:12.232Z,100205.50
2023-03-30T00:23:39.775Z,100196.09
2023-03-30T00:26:07.778Z,100204.03
2023-03-30T00:28:34.746Z,100204.09
2023-03-30T00:31:02.984Z,100193.63
2023-03-30T00:33:44.838Z,100193.97
2023-03-30T00:36:13.269Z,100192.78
2023-03-30T00:38:40.901Z,100191.47
2023-03-30T00:41:15.308Z,100191.19
2023-03-30T00:44:32.712Z,100187.63
2023-03-30T00:47:00.488Z,100200.84
2023-03-30T00:49:36.438Z,100195.47
2023-03-30T00:52:07.263Z,100184.13
2023-03-30T00:54:38.995Z,100175.50
2023-03-30T00:57:08.670Z,100165.09
2023-03-30T00:59:41.235Z,100170.75
2023-03-30T01:02:10.759Z,100171.84
2023-03-30T01:04:40.693Z,100182.63
2023-03-30T01:07:12.431Z,100182.63
2023-03-30T01:09:43.644Z,100187.19
2023-03-30T01:12:11.823Z,100187.19
2023-03-30T01:14:39.042Z,100192.84
2023-03-30T01:17:14.665Z,100191.69
2023-03-30T01:20:16.034Z,100192.50
2023-03-30T01:22:42.825Z,100189.00
2023-03-30T01:25:32.560Z,100183.53
2023-03-30T01:28:51.877Z,100184.03
2023-03-30T01:31:22.584Z,100187.19
2023-03-30T01:34:08.134Z,100174.66
2023-03-30T01:37:17.709Z,100177.28
2023-03-30T01:39:57.302Z,100178.88
2023-03-30T01:42:33.356Z,100182.19
2023-03-30T01:45:15.099Z,100198.06
2023-03-30T01:47:57.570Z,100187.50
2023-03-30T01:50:45.769Z,100183.13
2023-03-30T01:53:31.428Z,100170.03
2023-03-30T01:56:08.044Z,100165.66
2023-03-30T01:58:44.379Z,100177.47
2023-03-30T02:01:17.573Z,100182.31
2023-03-30T02:03:50.265Z,100185.22
2023-03-30T02:06:41.441Z,100188.13
2023-03-30T02:09:16.218Z,100192.00
2023-03-30T02:11:48.530Z,100199.56
2023-03-30T02:14:17.994Z,100203.38
2023-03-30T02:16:50.480Z,100203.63
2023-03-30T02:19:19.126Z,100204.81
2023-03-30T02:21:49.538Z,100184.41
2023-03-30T02:24:26.011Z,100161.38
2023-03-30T02:26:58.534Z,100148.91
2023-03-30T02:29:25.761Z,100166.00
2023-03-30T02:31:56.870Z,100175.00
2023-03-30T02:34:37.043Z,100183.75
2023-03-30T02:37:30.327Z,100198.22
2023-03-30T02:40:10.856Z,100197.38
2023-03-30T02:42:57.048Z,100193.59
2023-03-30T02:45:51.436Z,100179.47
2023-03-30T02:48:18.434Z,100166.91
2023-03-30T02:55:05.329Z,100173.47
2023-03-30T03:05:57.848Z,100194.84
2023-03-30T03:12:05.070Z,100173.44
2023-03-30T03:15:04.006Z,100169.19
2023-03-30T03:17:39.272Z,100171.38
2023-03-30T03:20:34.874Z,100157.94
2023-03-30T03:23:35.470Z,100145.25
2023-03-30T03:30:05.782Z,100149.28
2023-03-30T03:32:40.136Z,100145.34
2023-03-30T03:35:15.329Z,100146.75
2023-03-30T03:38:15.140Z,100144.84
2023-03-30T03:41:12.302Z,100144.69
2023-03-30T03:43:58.578Z,100137.16
2023-03-30T03:50:55.234Z,100111.63
2023-03-30T03:54:08.467Z,100118.31
2023-03-30T03:56:36.356Z,100117.72
2023-03-30T03:59:06.989Z,100123.97
2023-03-30T04:01:34.237Z,100115.50
2023-03-30T04:04:02.210Z,100112.28
2023-03-30T04:06:29.464Z,100107.13
2023-03-30T04:09:52.343Z,100090.91
2023-03-30T04:12:42.222Z,100077.41
2023-03-30T04:15:36.177Z,100081.88
2023-03-30T04:18:35.196Z,100070.88
2023-03-30T04:21:39.785Z,100061.75
2023-03-30T04:24:46.016Z,100051.25
2023-03-30T04:27:35.010Z,100047.81
2023-03-30T04:30:45.763Z,100050.53
2023-03-30T04:34:16.857Z,100064.97
2023-03-30T04:37:10.111Z,100063.28
2023-03-30T04:40:45.037Z,100065.88
2023-03-30T04:43:33.498Z,100066.34
2023-03-30T04:49:31.433Z,100061.84
2023-03-30T04:53:15.169Z,100060.22
2023-03-30T04:56:08.025Z,100048.47
2023-03-30T04:59:13.892Z,100051.88
2023-03-30T05:02:43.643Z,100057.00
2023-03-30T05:05:46.670Z,100059.94
2023-03-30T05:08:35.303Z,100058.84
2023-03-30T05:11:20.615Z,100067.25
2023-03-30T05:14:16.114Z,100052.03
2023-03-30T05:17:09.371Z,100075.88
2023-03-30T05:23:36.922Z,100074.94
2023-03-30T05:26:24.813Z,100089.50
2023-03-30T05:29:28.918Z,100080.25
2023-03-30T05:32:34.701Z,100087.81
2023-03-30T05:35:44.560Z,100102.94
2023-03-30T05:38:32.740Z,100112.09
2023-03-30T05:41:24.037Z,100141.72
2023-03-30T05:51:26.616Z,100245.75
2023-03-30T05:54:27.814Z,100232.59
2023-03-30T05:57:15.079Z,100235.25
2023-03-30T06:00:22.841Z,100238.13
2023-03-30T06:03:23.466Z,100247.94
2023-03-30T06:05:56.811Z,100244.72
2023-03-30T06:11:16.336Z,100231.69
2023-03-30T06:57:17.565Z,100176.13
2023-03-30T06:59:47.052Z,100183.19
2023-03-30T07:02:21.106Z,100187.22
2023-03-30T07:04:54.963Z,100186.22
2023-03-30T07:07:31.383Z,100195.16
2023-03-30T07:09:58.728Z,100188.19
2023-03-30T07:12:25.892Z,100194.50
2023-03-30T07:14:54.610Z,100196.16
2023-03-30T07:17:26.939Z,100192.41
2023-03-30T07:19:54.272Z,100192.19
2023-03-30T07:22:21.502Z,100199.47
2023-03-30T07:24:49.732Z,100210.66
2023-03-30T07:27:16.628Z,100212.66
2023-03-30T07:29:44.031Z,100212.03
2023-03-30T07:32:10.921Z,100203.41
2023-03-30T07:34:38.510Z,100196.72
2023-03-30T07:37:07.593Z,100176.66
2023-03-30T07:39:35.140Z,100169.09
2023-03-30T07:42:11.635Z,100178.16
2023-03-30T07:44:40.540Z,100180.13
2023-03-30T07:47:10.518Z,100175.53
2023-03-30T07:49:39.837Z,100171.16
2023-03-30T07:52:07.722Z,100176.56
2023-03-30T07:54:49.372Z,100188.66
2023-03-30T07:57:18.566Z,100176.03
2023-03-30T07:59:45.884Z,100181.16
2023-03-30T08:02:28.906Z,100194.78
2023-03-30T08:04:56.319Z,100192.91
2023-03-30T08:07:35.081Z,100187.22
2023-03-30T08:10:11.707Z,100199.03
2023-03-30T08:12:38.548Z,100204.88
2023-03-30T08:15:06.856Z,100208.44
2023-03-30T08:17:33.720Z,100204.00
2023-03-30T08:20:02.306Z,100193.28
2023-03-30T08:22:28.941Z,100195.19
2023-03-30T08:24:57.149Z,100180.47
2023-03-30T08:27:23.951Z,100191.25
2023-03-30T08:29:50.756Z,100201.59
2023-03-30T08:32:17.672Z,100213.56
2023-03-30T08:34:44.803Z,100217.25
2023-03-30T08:37:12.518Z,100212.19
2023-03-30T08:39:39.684Z,100219.72
2023-03-30T08:42:27.296Z,100213.56
2023-03-30T08:44:59.332Z,100232.53
2023-03-30T08:47:34.620Z,100228.97
2023-03-30T08:50:20.348Z,100230.22
2023-03-30T08:52:48.205Z,100234.97
2023-03-30T08:55:24.521Z,100232.59
2023-03-30T08:58:16.485Z,100215.06
2023-03-30T09:00:49.548Z,100199.88
2023-03-30T09:03:27.292Z,100204.84
2023-03-30T09:06:19.212Z,100207.56
2023-03-30T09:08:47.439Z,100220.28
2023-03-30T09:11:19.362Z,100205.13
2023-03-30T09:13:47.783Z,100200.72
2023-03-30T09:16:27.020Z,100215.63
2023-03-30T09:18:58.048Z,100194.03
2023-03-30T09:21:30.688Z,100201.56
2023-03-30T09:24:00.314Z,100217.94
2023-03-30T09:26:34.972Z,100237.28
2023-03-30T09:29:08.592Z,100249.81
2023-03-30T09:31:47.994Z,100235.50
2023-03-30T09:34:29.767Z,100211.22
2023-03-30T09:37:10.374Z,100212.91
2023-03-30T09:39:38.119Z,100248.34
2023-03-30T09:42:11.394Z,100232.19
2023-03-30T09:44:47.361Z,100225.09
2023-03-30T09:47:27.630Z,100233.84
2023-03-30T09:50:04.830Z,100235.63
2023-03-30T09:52:38.870Z,100244.59
2023-03-30T09:55:21.266Z,100244.09
2023-03-30T09:57:51.096Z,100227.41
2023-03-30T10:00:38.086Z,100204.44
2023-03-30T10:03:18.433Z,100240.34
2023-03-30T10:05:45.317Z,100232.16
2023-03-30T10:08:25.056Z,100235.28
2023-03-30T10:10:58.417Z,100234.38
2023-03-30T10:13:38.174Z,100238.19
2023-03-30T10:16:07.282Z,100234.31
2023-03-30T10:18:41.082Z,100229.84
2023-03-30T10:21:19.283Z,100241.25
2023-03-30T10:23:58.742Z,100230.03
2023-03-30T10:26:30.641Z,100250.41
2023-03-30T10:29:04.641Z,100250.13
2023-03-30T10:31:35.134Z,100245.50
2023-03-30T10:34:05.393Z,100251.19
2023-03-30T10:36:41.765Z,100245.34
2023-03-30T10:39:29.443Z,100244.34
2023-03-30T10:41:59.702Z,100249.09
2023-03-30T10:44:50.058Z,100243.50
2023-03-30T10:47:52.090Z,100232.19
2023-03-30T10:50:36.165Z,100230.94
2023-03-30T10:53:12.457Z,100232.81
2023-03-30T10:56:12.511Z,100238.13
2023-03-30T10:59:07.210Z,100229.69
2023-03-30T11:02:07.676Z,100228.22
2023-03-30T11:04:45.551Z,100229.66
2023-03-30T11:07:22.215Z,100231.16
2023-03-30T11:09:55.428Z,100237.03
2023-03-30T11:12:31.352Z,100223.97
2023-03-30T11:15:06.011Z,100226.06
2023-03-30T11:17:40.614Z,100223.41
2023-03-30T11:20:20.937Z,100239.69
2023-03-30T11:22:55.084Z,100236.19
2023-03-30T11:25:34.336Z,100231.53
2023-03-30T11:28:23.239Z,100230.44
2023-03-30T11:30:59.331Z,100228.72
2023-03-30T11:33:40.071Z,100227.41
2023-03-30T11:36:21.055Z,100217.97
2023-03-30T11:39:07.483Z,100224.16
2023-03-30T11:41:43.094Z,100218.66
2023-03-30T11:44:12.482Z,100216.19
2023-03-30T11:47:06.013Z,100213.16
2023-03-30T11:50:03.191Z,100212.78
2023-03-30T11:52:49.879Z,100197.75
2023-03-30T11:55:21.426Z,100194.88
2023-03-30T11:57:59.899Z,100199.63
2023-03-30T12:01:05.104Z,100188.28
2023-03-30T12:03:51.246Z,100178.63
2023-03-30T12:06:24.806Z,100180.53
2023-03-30T12:09:22.960Z,100162.13
2023-03-30T12:12:15.730Z,100168.41
2023-03-30T12:15:28.241Z,100161.22
2023-03-30T12:18:30.069Z,100166.25
2023-03-30T12:21:17.845Z,100166.41
2023-03-30T12:24:04.946Z,100153.34
2023-03-30T12:26:34.508Z,100159.34
2023-03-30T12:31:59.249Z,100157.06
2023-03-30T12:34:28.506Z,100153.69
2023-03-30T12:37:13.359Z,100161.53
2023-03-30T12:39:49.036Z,100158.00
2023-03-30T12:42:34.458Z,100148.13
2023-03-30T12:45:07.868Z,100136.19
2023-03-30T12:48:03.230Z,100161.44
2023-03-30T12:50:45.064Z,100141.56
2023-03-30T12:53:24.180Z,100157.97
2023-03-30T12:56:05.206Z,100165.59
2023-03-30T12:58:38.086Z,100163.25
2023-03-30T13:01:32.901Z,100181.00
2023-03-30T13:04:02.526Z,100161.38
2023-03-30T13:06:34.271Z,100165.47
2023-03-30T13:09:34.930Z,100150.47
2023-03-30T13:12:01.669Z,100146.97
2023-03-30T13:14:32.159Z,100134.53
2023-03-30T13:17:01.838Z,100137.56
2023-03-30T13:19:32.861Z,100142.84
2023-03-30T13:22:12.005Z,100135.66
2023-03-30T13:24:43.133Z,100129.13
2023-03-30T13:27:18.925Z,100122.56
2023-03-30T13:29:50.960Z,100116.63
2023-03-30T13:32:44.025Z,100116.63
2023-03-30T13:35:46.400Z,100116.47
2023-03-30T13:38:32.687Z,100115.03
2023-03-30T13:41:22.016Z,100114.69
2023-03-30T13:44:04.157Z,100113.72
2023-03-30T13:46:43.316Z,100125.47
2023-03-30T13:49:48.060Z,100110.44
2023-03-30T13:52:19.520Z,100117.66
2023-03-30T13:54:47.488Z,100107.34
2023-03-30T13:57:21.498Z,100116.25
2023-03-30T13:59:57.601Z,100105.22
2023-03-30T14:02:27.778Z,100104.75
2023-03-30T14:05:15.349Z,100092.44
2023-03-30T14:07:47.423Z,100101.91
2023-03-30T14:10:19.908Z,100105.31
2023-03-30T14:12:54.821Z,100101.53
2023-03-30T14:15:33.895Z,100113.69
2023-03-30T14:18:02.940Z,100119.47
2023-03-30T14:20:51.174Z,100123.31
2023-03-30T14:23:44.249Z,100137.06
2023-03-30T14:26:27.651Z,100167.44
2023-03-30T14:29:02.605Z,100153.63
2023-03-30T14:31:38.865Z,100151.94
2023-03-30T14:34:27.761Z,100148.00
2023-03-30T14:36:58.729Z,100162.16
2023-03-30T14:39:26.322Z,100158.59
2023-03-30T14:41:56.415Z,100150.22
2023-03-30T14:44:24.581Z,100149.94
2023-03-30T14:46:53.849Z,100147.53
2023-03-30T14:49:25.028Z,100147.94
2023-03-30T14:51:59.921Z,100150.97
2023-03-30T14:54:29.701Z,100148.25
2023-03-30T14:57:07.012Z,100154.81
2023-03-30T14:59:39.794Z,100145.06
2023-03-30T15:02:19.186Z,100142.34
2023-03-30T15:04:46.221Z,100140.72
2023-03-30T15:07:16.344Z,100151.94
2023-03-30T15:09:46.564Z,100150.81
2023-03-30T15:12:31.688Z,100147.28
2023-03-30T15:15:02.375Z,100147.75
2023-03-30T15:17:30.482Z,100143.63
2023-03-30T15:19:59.492Z,100153.97
2023-03-30T15:22:34.104Z,100144.88
2023-03-30T15:25:05.581Z,100143.13
2023-03-30T15:27:36.038Z,100147.44
2023-03-30T15:30:04.064Z,100157.19
2023-03-30T15:32:43.164Z,100154.78
2023-03-30T15:35:16.398Z,100161.50
2023-03-30T15:37:54.914Z,100173.50
2023-03-30T15:40:31.933Z,100164.06
2023-03-30T15:43:11.590Z,100162.00
2023-03-30T15:45:38.583Z,100168.75
2023-03-30T15:48:10.137Z,100161.94
2023-03-30T15:50:37.461Z,100165.38
2023-03-30T15:53:04.310Z,100156.56
2023-03-30T15:55:33.623Z,100170.09
2023-03-30T15:58:00.531Z,100152.75
2023-03-30T16:00:33.331Z,100155.78
2023-03-30T16:03:01.826Z,100161.81
2023-03-30T16:05:33.954Z,100167.44
2023-03-30T16:08:01.113Z,100155.84
2023-03-30T16:10:30.213Z,100156.16
2023-03-30T16:12:59.478Z,100158.75
2023-03-30T16:15:29.802Z,100162.91
2023-03-30T16:17:57.477Z,100155.56
2023-03-30T16:20:27.331Z,100164.91
2023-03-30T16:22:54.696Z,100166.63
2023-03-30T16:25:34.014Z,100166.13
2023-03-30T16:28:05.000Z,100165.97
2023-03-30T16:30:35.015Z,100175.50
2023-03-30T16:33:02.624Z,100175.66
2023-03-30T16:35:29.850Z,100170.69
2023-03-30T16:37:57.003Z,100169.97
2023-03-30T16:40:40.812Z,100177.25
2023-03-30T16:43:09.065Z,100184.28
2023-03-30T16:45:37.351Z,100212.47
2023-03-30T16:48:05.044Z,100196.38
2023-03-30T16:50:40.937Z,100195.25
2023-03-30T16:53:09.754Z,100214.84
2023-03-30T16:55:37.651Z,100221.34
2023-03-30T16:58:05.241Z,100215.19
2023-03-30T17:00:38.095Z,100211.72
2023-03-30T17:03:05.241Z,100216.66
2023-03-30T17:05:32.229Z,100213.03
2023-03-30T17:08:07.038Z,100224.16
2023-03-30T17:10:39.188Z,100219.47
2023-03-30T17:13:06.432Z,100212.00
2023-03-30T17:15:35.149Z,100206.97
2023-03-30T17:18:02.195Z,100214.28
2023-03-30T17:20:28.858Z,100225.22
2023-03-30T17:22:55.608Z,100219.72
2023-03-30T17:25:26.257Z,100226.91
2023-03-30T17:27:55.426Z,100215.91
2023-03-30T17:30:29.010Z,100220.09
2023-03-30T17:32:57.118Z,100217.00
2023-03-30T17:35:25.677Z,100220.50
2023-03-30T17:37:53.288Z,100218.00
2023-03-30T17:40:23.824Z,100215.09
2023-03-30T17:42:50.551Z,100222.00
2023-03-30T17:45:21.215Z,100214.75
2023-03-30T17:47:48.233Z,100216.03
2023-03-30T17:50:32.535Z,100222.34
2023-03-30T17:52:59.342Z,100221.72
2023-03-30T17:55:28.976Z,100221.88
2023-03-30T17:57:55.932Z,100228.41
2023-03-30T18:00:33.099Z,100222.50
2023-03-30T18:03:00.567Z,100219.59
2023-03-30T18:05:30.980Z,100227.03
2023-03-30T18:07:58.028Z,100226.38
2023-03-30T18:10:49.326Z,100231.41
2023-03-30T18:13:16.679Z,100229.38
2023-03-30T18:15:45.383Z,100244.28
2023-03-30T18:18:22.335Z,100258.72
2023-03-30T18:21:02.618Z,100283.53
2023-03-30T18:23:33.388Z,100264.78
2023-03-30T18:26:01.627Z,100260.66
2023-03-30T18:28:28.685Z,100246.75
2023-03-30T18:31:00.674Z,100259.63
2023-03-30T18:33:28.523Z,100257.41
2023-03-30T18:35:57.013Z,100260.84
2023-03-30T18:38:25.271Z,100255.59
2023-03-30T18:40:57.494Z,100263.13
2023-03-30T18:43:26.851Z,100267.03
2023-03-30T18:45:58.853Z,100262.38
2023-03-30T18:48:28.626Z,100271.59
2023-03-30T18:50:55.570Z,100281.38
2023-03-30T18:53:26.110Z,100305.59
2023-03-30T18:55:57.062Z,100314.72
2023-03-30T18:58:30.015Z,100313.69
2023-03-30T19:01:00.619Z,100322.06
2023-03-30T19:03:28.582Z,100328.44
2023-03-30T19:05:56.182Z,100330.75
2023-03-30T19:08:24.792Z,100323.53
2023-03-30T19:10:55.029Z,100299.88
2023-03-30T19:13:22.701Z,100301.00
2023-03-30T19:15:50.870Z,100306.38
2023-03-30T19:18:18.600Z,100305.28
2023-03-30T19:20:45.991Z,100306.44
2023-03-30T19:23:16.453Z,100293.00
2023-03-30T19:25:46.774Z,100288.84
2023-03-30T19:28:15.267Z,100287.72
2023-03-30T19:30:42.729Z,100291.03
2023-03-30T19:33:12.434Z,100286.22
2023-03-30T19:35:40.575Z,100287.63
2023-03-30T19:38:07.292Z,100282.31
2023-03-30T19:40:35.041Z,100274.41
2023-03-30T19:43:01.813Z,100270.03
2023-03-30T19:45:28.618Z,100265.38
2023-03-30T19:47:56.679Z,100264.13
2023-03-30T19:50:24.968Z,100268.53
2023-03-30T19:52:52.316Z,100268.41
2023-03-30T19:55:20.219Z,100268.97
2023-03-30T19:57:47.317Z,100262.53
2023-03-30T20:00:17.040Z,100257.22
2023-03-30T20:02:46.955Z,100263.47
2023-03-30T20:05:13.964Z,100264.81
2023-03-30T20:07:41.650Z,100265.72
2023-03-30T20:10:11.578Z,100269.03
2023-03-30T20:12:39.046Z,100257.75
2023-03-30T20:15:06.947Z,100260.22
2023-03-30T20:17:34.215Z,100253.28
2023-03-30T20:20:07.201Z,100251.44
2023-03-30T20:22:38.814Z,100249.81
2023-03-30T20:25:10.931Z,100251.97
2023-03-30T20:27:37.872Z,100249.28
2023-03-30T20:30:06.324Z,100253.03
2023-03-30T20:32:34.597Z,100250.78
2023-03-30T20:35:01.447Z,100249.06
2023-03-30T20:37:28.175Z,100252.28
2023-03-30T20:40:04.092Z,100240.38
2023-03-30T20:42:32.886Z,100251.06
2023-03-30T20:45:01.480Z,100257.50
2023-03-30T20:47:31.051Z,100248.53
2023-03-30T20:49:58.726Z,100271.31
2023-03-30T20:52:26.753Z,100262.78
2023-03-30T20:54:54.149Z,100264.88
2023-03-30T20:57:21.819Z,100286.44
2023-03-30T20:59:50.097Z,100265.09
2023-03-30T21:02:17.717Z,100257.06
2023-03-30T21:04:45.256Z,100238.47
2023-03-30T21:07:12.458Z,100235.03
2023-03-30T21:09:40.093Z,100222.94
2023-03-30T21:12:09.919Z,100240.78
2023-03-30T21:14:36.860Z,100234.88
2023-03-30T21:17:03.892Z,100232.69
2023-03-30T21:19:30.893Z,100232.63
2023-03-30T21:21:57.919Z,100222.53
2023-03-30T21:24:24.768Z,100208.78
2023-03-30T21:26:51.742Z,100208.03
2023-03-30T21:29:18.473Z,100202.91
2023-03-30T21:31:46.346Z,100197.53
2023-03-30T21:34:13.499Z,100196.97
2023-03-30T21:36:40.659Z,100211.00
2023-03-30T21:39:07.552Z,100208.97
2023-03-30T21:41:35.738Z,100200.41
2023-03-30T21:44:02.475Z,100205.53
2023-03-30T21:46:29.279Z,100203.38
2023-03-30T21:48:56.067Z,100189.97
2023-03-30T21:51:28.971Z,100186.41
2023-03-30T21:53:58.629Z,100186.25
2023-03-30T21:56:28.815Z,100178.78
2023-03-30T21:58:55.990Z,100165.84
2023-03-30T22:01:24.341Z,100167.47
2023-03-30T22:03:52.184Z,100168.28
2023-03-30T22:06:19.277Z,100153.50
2023-03-30T22:08:47.700Z,100156.53
2023-03-30T22:11:17.758Z,100155.72
2023-03-30T22:13:48.660Z,100156.78
2023-03-30T22:16:22.656Z,100162.16
2023-03-30T22:18:50.336Z,100162.16
2023-03-30T22:21:26.003Z,100152.97
2023-03-30T22:23:54.695Z,100150.28
2023-03-30T22:26:22.310Z,100143.88
2023-03-30T22:28:49.091Z,100143.94
2023-03-30T22:31:15.920Z,100143.97
2023-03-30T22:33:43.221Z,100137.56
2023-03-30T22:36:20.806Z,100133.25
2023-03-30T22:38:49.242Z,100124.69
2023-03-30T22:41:16.420Z,100115.50
2023-03-30T22:43:43.153Z,100110.66
2023-03-30T22:46:10.752Z,100104.47
2023-03-30T22:48:41.490Z,100107.44
2023-03-30T22:51:08.890Z,100099.88
2023-03-30T22:53:35.880Z,100099.59
2023-03-30T22:56:02.920Z,100089.13
2023-03-30T22:58:29.729Z,100084.81
2023-03-30T23:01:06.100Z,100084.88
2023-03-30T23:03:33.483Z,100082.69
2023-03-30T23:06:01.883Z,100082.69
2023-03-30T23:08:30.139Z,100082.63
2023-03-30T23:11:04.374Z,100070.22
2023-03-30T23:13:38.158Z,100070.75
2023-03-30T23:16:14.651Z,100072.50
2023-03-30T23:18:41.808Z,100078.66
2023-03-30T23:21:10.957Z,100068.69
2023-03-30T23:23:38.910Z,100065.72
2023-03-30T23:26:13.242Z,100053.34
2023-03-30T23:28:42.283Z,100055.53
2023-03-30T23:31:18.126Z,100045.31
2023-03-30T23:33:45.579Z,100042.09
2023-03-30T23:36:14.165Z,100036.72
2023-03-30T23:38:42.396Z,100031.94
2023-03-30T23:41:15.060Z,100022.75
2023-03-30T23:43:42.161Z,100012.75
2023-03-30T23:46:12.523Z,100012.91
2023-03-30T23:48:42.250Z,100007.75
2023-03-30T23:51:09.724Z,100006.97
2023-03-30T23:53:42.934Z,100002.59
2023-03-30T23:56:13.076Z,100002.88
2023-03-30T23:58:40.675Z,100003.53
